sensor_id;sensor_type;location;lat;lon;timestamp;temperature;humidity
42683;DHT22;28293;50.930;3.464;2022-07-29T00:00:42;18.60;64.40
42683;DHT22;28293;50.930;3.464;2022-07-29T00:03:10;18.60;64.60
42683;DHT22;28293;50.930;3.464;2022-07-29T00:05:38;18.60;64.70
42683;DHT22;28293;50.930;3.464;2022-07-29T00:08:04;18.60;64.90
42683;DHT22;28293;50.930;3.464;2022-07-29T00:10:30;18.50;65.00
42683;DHT22;28293;50.930;3.464;2022-07-29T00:12:55;18.50;65.10
42683;DHT22;28293;50.930;3.464;2022-07-29T00:15:21;18.60;65.20
42683;DHT22;28293;50.930;3.464;2022-07-29T00:17:47;18.50;65.10
42683;DHT22;28293;50.930;3.464;2022-07-29T00:20:12;18.50;65.30
42683;DHT22;28293;50.930;3.464;2022-07-29T00:22:39;18.50;65.40
42683;DHT22;28293;50.930;3.464;2022-07-29T00:25:06;18.40;65.60
42683;DHT22;28293;50.930;3.464;2022-07-29T00:27:32;18.40;65.80
42683;DHT22;28293;50.930;3.464;2022-07-29T00:29:57;18.30;66.00
42683;DHT22;28293;50.930;3.464;2022-07-29T00:32:23;18.40;65.90
42683;DHT22;28293;50.930;3.464;2022-07-29T00:34:49;18.30;66.00
42683;DHT22;28293;50.930;3.464;2022-07-29T00:37:43;18.40;65.90
42683;DHT22;28293;50.930;3.464;2022-07-29T00:40:09;18.40;65.70
42683;DHT22;28293;50.930;3.464;2022-07-29T00:42:43;18.30;65.80
42683;DHT22;28293;50.930;3.464;2022-07-29T00:45:09;18.40;66.00
42683;DHT22;28293;50.930;3.464;2022-07-29T00:47:34;18.40;66.00
42683;DHT22;28293;50.930;3.464;2022-07-29T00:50:00;18.40;66.10
42683;DHT22;28293;50.930;3.464;2022-07-29T00:52:26;18.30;66.10
42683;DHT22;28293;50.930;3.464;2022-07-29T00:54:52;18.30;66.20
42683;DHT22;28293;50.930;3.464;2022-07-29T00:57:18;18.30;66.30
42683;DHT22;28293;50.930;3.464;2022-07-29T00:59:43;18.30;66.30
42683;DHT22;28293;50.930;3.464;2022-07-29T01:02:09;18.10;66.40
42683;DHT22;28293;50.930;3.464;2022-07-29T01:04:35;18.10;66.60
42683;DHT22;28293;50.930;3.464;2022-07-29T01:07:01;18.10;66.80
42683;DHT22;28293;50.930;3.464;2022-07-29T01:09:27;18.10;67.00
42683;DHT22;28293;50.930;3.464;2022-07-29T01:11:53;18.00;67.10
42683;DHT22;28293;50.930;3.464;2022-07-29T01:14:21;17.90;67.30
42683;DHT22;28293;50.930;3.464;2022-07-29T01:17:02;17.80;67.60
42683;DHT22;28293;50.930;3.464;2022-07-29T01:28:29;17.70;68.20
42683;DHT22;28293;50.930;3.464;2022-07-29T01:30:57;17.60;68.30
42683;DHT22;28293;50.930;3.464;2022-07-29T01:33:25;17.60;68.50
42683;DHT22;28293;50.930;3.464;2022-07-29T01:36:19;17.60;68.60
42683;DHT22;28293;50.930;3.464;2022-07-29T01:38:56;17.50;68.80
42683;DHT22;28293;50.930;3.464;2022-07-29T01:41:24;17.40;69.10
42683;DHT22;28293;50.930;3.464;2022-07-29T01:43:59;17.30;69.40
42683;DHT22;28293;50.930;3.464;2022-07-29T01:46:34;17.30;69.60
42683;DHT22;28293;50.930;3.464;2022-07-29T01:49:08;17.30;69.70
42683;DHT22;28293;50.930;3.464;2022-07-29T01:51:46;17.30;69.80
42683;DHT22;28293;50.930;3.464;2022-07-29T01:57:01;17.30;69.80
42683;DHT22;28293;50.930;3.464;2022-07-29T01:59:29;17.20;70.00
42683;DHT22;28293;50.930;3.464;2022-07-29T02:01:58;17.10;70.20
42683;DHT22;28293;50.930;3.464;2022-07-29T02:04:26;17.10;70.30
42683;DHT22;28293;50.930;3.464;2022-07-29T02:06:54;17.10;70.40
42683;DHT22;28293;50.930;3.464;2022-07-29T02:09:23;17.10;70.60
42683;DHT22;28293;50.930;3.464;2022-07-29T02:11:53;17.10;70.80
42683;DHT22;28293;50.930;3.464;2022-07-29T02:14:20;17.00;70.90
42683;DHT22;28293;50.930;3.464;2022-07-29T02:16:49;17.00;71.10
42683;DHT22;28293;50.930;3.464;2022-07-29T02:19:18;16.90;71.10
42683;DHT22;28293;50.930;3.464;2022-07-29T02:21:45;16.80;71.50
42683;DHT22;28293;50.930;3.464;2022-07-29T02:24:12;16.80;71.70
42683;DHT22;28293;50.930;3.464;2022-07-29T02:26:41;16.80;71.90
42683;DHT22;28293;50.930;3.464;2022-07-29T02:29:09;16.70;72.00
42683;DHT22;28293;50.930;3.464;2022-07-29T02:31:35;16.70;72.00
42683;DHT22;28293;50.930;3.464;2022-07-29T02:34:04;16.60;72.30
42683;DHT22;28293;50.930;3.464;2022-07-29T02:36:31;16.60;72.40
42683;DHT22;28293;50.930;3.464;2022-07-29T02:38:58;16.60;72.60
42683;DHT22;28293;50.930;3.464;2022-07-29T02:41:47;16.60;72.60
42683;DHT22;28293;50.930;3.464;2022-07-29T02:44:16;16.60;72.80
42683;DHT22;28293;50.930;3.464;2022-07-29T02:46:52;16.50;72.80
42683;DHT22;28293;50.930;3.464;2022-07-29T02:51:59;16.50;73.00
42683;DHT22;28293;50.930;3.464;2022-07-29T02:54:49;16.40;73.30
42683;DHT22;28293;50.930;3.464;2022-07-29T02:57:31;16.40;73.50
42683;DHT22;28293;50.930;3.464;2022-07-29T03:00:03;16.30;73.70
42683;DHT22;28293;50.930;3.464;2022-07-29T03:02:45;16.30;73.80
42683;DHT22;28293;50.930;3.464;2022-07-29T03:05:17;16.30;73.90
42683;DHT22;28293;50.930;3.464;2022-07-29T03:07:47;16.20;73.80
42683;DHT22;28293;50.930;3.464;2022-07-29T03:10:13;16.20;73.90
42683;DHT22;28293;50.930;3.464;2022-07-29T03:12:40;16.20;73.90
42683;DHT22;28293;50.930;3.464;2022-07-29T03:15:06;16.20;73.80
42683;DHT22;28293;50.930;3.464;2022-07-29T03:17:33;16.20;74.00
42683;DHT22;28293;50.930;3.464;2022-07-29T03:20:00;16.10;74.00
42683;DHT22;28293;50.930;3.464;2022-07-29T03:22:27;16.10;74.10
42683;DHT22;28293;50.930;3.464;2022-07-29T03:24:53;16.20;74.20
42683;DHT22;28293;50.930;3.464;2022-07-29T03:27:18;16.10;74.00
42683;DHT22;28293;50.930;3.464;2022-07-29T03:29:44;16.10;74.20
42683;DHT22;28293;50.930;3.464;2022-07-29T03:32:10;16.10;74.20
42683;DHT22;28293;50.930;3.464;2022-07-29T03:34:37;16.10;74.20
42683;DHT22;28293;50.930;3.464;2022-07-29T03:37:03;16.10;74.20
42683;DHT22;28293;50.930;3.464;2022-07-29T03:39:33;16.10;74.30
42683;DHT22;28293;50.930;3.464;2022-07-29T03:42:00;16.10;74.30
42683;DHT22;28293;50.930;3.464;2022-07-29T03:44:27;16.10;74.40
42683;DHT22;28293;50.930;3.464;2022-07-29T03:46:55;16.00;74.40
42683;DHT22;28293;50.930;3.464;2022-07-29T03:49:23;16.00;74.40
42683;DHT22;28293;50.930;3.464;2022-07-29T03:51:50;15.90;74.50
42683;DHT22;28293;50.930;3.464;2022-07-29T03:54:15;15.90;74.60
42683;DHT22;28293;50.930;3.464;2022-07-29T03:56:43;15.90;74.60
42683;DHT22;28293;50.930;3.464;2022-07-29T03:59:13;15.80;74.70
42683;DHT22;28293;50.930;3.464;2022-07-29T04:01:40;15.80;74.90
42683;DHT22;28293;50.930;3.464;2022-07-29T04:04:06;15.80;74.90
42683;DHT22;28293;50.930;3.464;2022-07-29T04:06:40;15.70;75.00
42683;DHT22;28293;50.930;3.464;2022-07-29T04:09:06;15.80;75.10
42683;DHT22;28293;50.930;3.464;2022-07-29T04:11:31;15.70;75.10
42683;DHT22;28293;50.930;3.464;2022-07-29T04:13:57;15.70;75.10
42683;DHT22;28293;50.930;3.464;2022-07-29T04:16:23;15.70;75.20
42683;DHT22;28293;50.930;3.464;2022-07-29T04:18:48;15.60;75.30
42683;DHT22;28293;50.930;3.464;2022-07-29T04:21:14;15.70;75.30
42683;DHT22;28293;50.930;3.464;2022-07-29T04:23:40;15.70;75.40
42683;DHT22;28293;50.930;3.464;2022-07-29T04:26:06;15.60;75.30
42683;DHT22;28293;50.930;3.464;2022-07-29T04:28:35;15.60;75.30
42683;DHT22;28293;50.930;3.464;2022-07-29T04:31:00;15.60;75.40
42683;DHT22;28293;50.930;3.464;2022-07-29T04:33:27;15.70;75.50
42683;DHT22;28293;50.930;3.464;2022-07-29T04:35:52;15.70;75.50
42683;DHT22;28293;50.930;3.464;2022-07-29T04:38:18;15.70;75.50
42683;DHT22;28293;50.930;3.464;2022-07-29T04:40:44;15.80;75.40
42683;DHT22;28293;50.930;3.464;2022-07-29T04:43:09;15.80;75.40
42683;DHT22;28293;50.930;3.464;2022-07-29T04:45:35;15.80;75.40
42683;DHT22;28293;50.930;3.464;2022-07-29T04:48:00;15.90;75.30
42683;DHT22;28293;50.930;3.464;2022-07-29T04:50:26;16.00;75.20
42683;DHT22;28293;50.930;3.464;2022-07-29T04:52:52;16.00;75.00
42683;DHT22;28293;50.930;3.464;2022-07-29T04:55:17;16.10;74.90
42683;DHT22;28293;50.930;3.464;2022-07-29T04:57:43;16.10;74.70
42683;DHT22;28293;50.930;3.464;2022-07-29T05:00:09;16.20;74.60
42683;DHT22;28293;50.930;3.464;2022-07-29T05:02:35;16.30;74.30
42683;DHT22;28293;50.930;3.464;2022-07-29T05:05:01;16.30;74.30
42683;DHT22;28293;50.930;3.464;2022-07-29T05:07:27;16.30;74.10
42683;DHT22;28293;50.930;3.464;2022-07-29T05:09:52;16.30;74.00
42683;DHT22;28293;50.930;3.464;2022-07-29T05:12:18;16.30;74.00
42683;DHT22;28293;50.930;3.464;2022-07-29T05:14:44;16.40;74.10
42683;DHT22;28293;50.930;3.464;2022-07-29T05:17:09;16.40;74.00
42683;DHT22;28293;50.930;3.464;2022-07-29T05:19:35;16.40;74.00
42683;DHT22;28293;50.930;3.464;2022-07-29T05:22:01;16.40;74.20
42683;DHT22;28293;50.930;3.464;2022-07-29T05:24:26;16.50;74.20
42683;DHT22;28293;50.930;3.464;2022-07-29T05:26:52;16.70;74.30
42683;DHT22;28293;50.930;3.464;2022-07-29T05:29:18;17.80;71.70
42683;DHT22;28293;50.930;3.464;2022-07-29T05:31:44;18.90;66.10
42683;DHT22;28293;50.930;3.464;2022-07-29T05:34:09;20.10;63.60
42683;DHT22;28293;50.930;3.464;2022-07-29T05:36:35;21.00;59.30
42683;DHT22;28293;50.930;3.464;2022-07-29T05:39:00;21.60;57.60
42683;DHT22;28293;50.930;3.464;2022-07-29T05:41:26;22.40;55.20
42683;DHT22;28293;50.930;3.464;2022-07-29T05:43:52;23.10;53.20
42683;DHT22;28293;50.930;3.464;2022-07-29T05:46:17;23.50;51.40
42683;DHT22;28293;50.930;3.464;2022-07-29T05:48:43;22.90;52.40
42683;DHT22;28293;50.930;3.464;2022-07-29T05:51:09;21.80;55.60
42683;DHT22;28293;50.930;3.464;2022-07-29T05:53:35;21.00;57.90
42683;DHT22;28293;50.930;3.464;2022-07-29T05:56:03;21.20;57.80
42683;DHT22;28293;50.930;3.464;2022-07-29T05:58:30;21.70;55.80
42683;DHT22;28293;50.930;3.464;2022-07-29T06:00:55;22.10;55.10
42683;DHT22;28293;50.930;3.464;2022-07-29T06:03:25;22.30;54.30
42683;DHT22;28293;50.930;3.464;2022-07-29T06:05:50;22.20;54.80
42683;DHT22;28293;50.930;3.464;2022-07-29T06:08:16;21.50;56.90
42683;DHT22;28293;50.930;3.464;2022-07-29T06:10:43;20.60;58.90
42683;DHT22;28293;50.930;3.464;2022-07-29T06:13:08;19.80;62.00
42683;DHT22;28293;50.930;3.464;2022-07-29T06:15:34;19.50;63.10
42683;DHT22;28293;50.930;3.464;2022-07-29T06:18:00;19.20;64.40
42683;DHT22;28293;50.930;3.464;2022-07-29T06:20:26;19.20;64.20
42683;DHT22;28293;50.930;3.464;2022-07-29T06:22:54;19.10;64.90
42683;DHT22;28293;50.930;3.464;2022-07-29T06:25:20;19.10;64.90
42683;DHT22;28293;50.930;3.464;2022-07-29T06:27:46;19.40;65.10
42683;DHT22;28293;50.930;3.464;2022-07-29T06:30:12;19.50;64.30
42683;DHT22;28293;50.930;3.464;2022-07-29T06:32:37;19.50;64.50
42683;DHT22;28293;50.930;3.464;2022-07-29T06:35:03;19.50;64.00
42683;DHT22;28293;50.930;3.464;2022-07-29T06:37:29;19.30;65.30
42683;DHT22;28293;50.930;3.464;2022-07-29T06:39:54;19.30;64.80
42683;DHT22;28293;50.930;3.464;2022-07-29T06:42:43;19.50;65.00
42683;DHT22;28293;50.930;3.464;2022-07-29T06:45:10;19.60;64.50
42683;DHT22;28293;50.930;3.464;2022-07-29T06:47:36;19.60;65.10
42683;DHT22;28293;50.930;3.464;2022-07-29T06:50:02;19.70;63.80
42683;DHT22;28293;50.930;3.464;2022-07-29T06:52:27;19.80;64.10
42683;DHT22;28293;50.930;3.464;2022-07-29T06:54:53;19.80;64.40
42683;DHT22;28293;50.930;3.464;2022-07-29T06:57:20;19.80;64.10
42683;DHT22;28293;50.930;3.464;2022-07-29T06:59:46;19.80;64.30
42683;DHT22;28293;50.930;3.464;2022-07-29T07:02:12;19.80;64.20
42683;DHT22;28293;50.930;3.464;2022-07-29T07:04:38;20.10;63.60
42683;DHT22;28293;50.930;3.464;2022-07-29T07:07:03;20.20;63.60
42683;DHT22;28293;50.930;3.464;2022-07-29T07:09:29;20.20;63.20
42683;DHT22;28293;50.930;3.464;2022-07-29T07:11:55;20.50;62.60
42683;DHT22;28293;50.930;3.464;2022-07-29T07:14:20;20.40;61.30
42683;DHT22;28293;50.930;3.464;2022-07-29T07:16:46;20.40;62.90
42683;DHT22;28293;50.930;3.464;2022-07-29T07:19:12;20.70;61.30
42683;DHT22;28293;50.930;3.464;2022-07-29T07:21:37;20.90;61.10
42683;DHT22;28293;50.930;3.464;2022-07-29T07:24:03;21.20;60.20
42683;DHT22;28293;50.930;3.464;2022-07-29T07:26:29;21.10;59.80
42683;DHT22;28293;50.930;3.464;2022-07-29T07:28:55;21.20;60.90
42683;DHT22;28293;50.930;3.464;2022-07-29T07:31:20;21.00;61.00
42683;DHT22;28293;50.930;3.464;2022-07-29T07:33:46;21.10;60.60
42683;DHT22;28293;50.930;3.464;2022-07-29T07:36:11;21.10;60.50
42683;DHT22;28293;50.930;3.464;2022-07-29T07:38:37;21.30;60.40
42683;DHT22;28293;50.930;3.464;2022-07-29T07:41:03;21.60;59.80
42683;DHT22;28293;50.930;3.464;2022-07-29T07:43:29;21.60;57.90
42683;DHT22;28293;50.930;3.464;2022-07-29T07:45:54;21.50;57.90
42683;DHT22;28293;50.930;3.464;2022-07-29T07:48:20;21.70;58.80
42683;DHT22;28293;50.930;3.464;2022-07-29T07:50:46;22.00;57.50
42683;DHT22;28293;50.930;3.464;2022-07-29T07:53:11;22.20;55.90
42683;DHT22;28293;50.930;3.464;2022-07-29T07:55:43;22.00;56.10
42683;DHT22;28293;50.930;3.464;2022-07-29T07:58:09;22.10;56.50
42683;DHT22;28293;50.930;3.464;2022-07-29T08:00:35;22.20;57.20
42683;DHT22;28293;50.930;3.464;2022-07-29T08:03:01;22.40;56.60
42683;DHT22;28293;50.930;3.464;2022-07-29T08:05:27;22.60;56.00
42683;DHT22;28293;50.930;3.464;2022-07-29T08:07:52;22.60;55.40
42683;DHT22;28293;50.930;3.464;2022-07-29T08:10:19;22.70;55.40
42683;DHT22;28293;50.930;3.464;2022-07-29T08:13:07;22.70;55.80
42683;DHT22;28293;50.930;3.464;2022-07-29T08:15:33;23.00;53.90
42683;DHT22;28293;50.930;3.464;2022-07-29T08:17:59;23.20;54.10
42683;DHT22;28293;50.930;3.464;2022-07-29T08:20:25;23.30;53.90
42683;DHT22;28293;50.930;3.464;2022-07-29T08:22:51;23.40;54.50
42683;DHT22;28293;50.930;3.464;2022-07-29T08:25:18;23.60;54.00
42683;DHT22;28293;50.930;3.464;2022-07-29T08:27:46;23.80;53.70
42683;DHT22;28293;50.930;3.464;2022-07-29T08:30:12;23.80;52.80
42683;DHT22;28293;50.930;3.464;2022-07-29T08:32:38;23.40;53.00
42683;DHT22;28293;50.930;3.464;2022-07-29T08:35:04;23.30;53.20
42683;DHT22;28293;50.930;3.464;2022-07-29T08:37:30;23.50;53.10
42683;DHT22;28293;50.930;3.464;2022-07-29T08:39:56;23.90;53.10
42683;DHT22;28293;50.930;3.464;2022-07-29T08:42:21;23.90;53.10
42683;DHT22;28293;50.930;3.464;2022-07-29T08:44:48;24.20;52.50
42683;DHT22;28293;50.930;3.464;2022-07-29T08:47:14;24.50;51.50
42683;DHT22;28293;50.930;3.464;2022-07-29T08:49:40;24.80;50.90
42683;DHT22;28293;50.930;3.464;2022-07-29T08:52:07;24.50;49.60
42683;DHT22;28293;50.930;3.464;2022-07-29T08:54:35;24.70;50.40
42683;DHT22;28293;50.930;3.464;2022-07-29T08:57:02;24.80;48.40
42683;DHT22;28293;50.930;3.464;2022-07-29T08:59:30;24.80;49.00
42683;DHT22;28293;50.930;3.464;2022-07-29T09:01:57;25.00;49.40
42683;DHT22;28293;50.930;3.464;2022-07-29T09:04:29;25.10;49.00
42683;DHT22;28293;50.930;3.464;2022-07-29T09:06:57;25.30;48.10
42683;DHT22;28293;50.930;3.464;2022-07-29T09:09:24;25.30;47.70
42683;DHT22;28293;50.930;3.464;2022-07-29T09:11:50;25.40;47.40
42683;DHT22;28293;50.930;3.464;2022-07-29T09:14:16;24.90;47.40
42683;DHT22;28293;50.930;3.464;2022-07-29T09:16:54;24.40;48.20
42683;DHT22;28293;50.930;3.464;2022-07-29T09:19:40;24.70;47.10
42683;DHT22;28293;50.930;3.464;2022-07-29T09:22:06;24.50;47.70
42683;DHT22;28293;50.930;3.464;2022-07-29T09:24:43;24.80;48.20
42683;DHT22;28293;50.930;3.464;2022-07-29T09:27:23;24.80;47.50
42683;DHT22;28293;50.930;3.464;2022-07-29T09:29:59;25.10;48.20
42683;DHT22;28293;50.930;3.464;2022-07-29T09:32:25;25.60;47.20
42683;DHT22;28293;50.930;3.464;2022-07-29T09:35:15;25.60;45.90
42683;DHT22;28293;50.930;3.464;2022-07-29T09:37:42;25.60;45.60
42683;DHT22;28293;50.930;3.464;2022-07-29T09:40:19;25.70;46.00
42683;DHT22;28293;50.930;3.464;2022-07-29T09:42:46;25.60;44.50
42683;DHT22;28293;50.930;3.464;2022-07-29T09:45:13;25.90;45.00
42683;DHT22;28293;50.930;3.464;2022-07-29T09:47:51;25.90;43.70
42683;DHT22;28293;50.930;3.464;2022-07-29T09:50:17;25.90;44.20
42683;DHT22;28293;50.930;3.464;2022-07-29T09:52:51;25.90;43.90
42683;DHT22;28293;50.930;3.464;2022-07-29T09:55:17;26.10;44.30
42683;DHT22;28293;50.930;3.464;2022-07-29T09:57:44;26.40;44.60
42683;DHT22;28293;50.930;3.464;2022-07-29T10:00:12;26.20;44.50
42683;DHT22;28293;50.930;3.464;2022-07-29T10:02:40;26.10;43.70
42683;DHT22;28293;50.930;3.464;2022-07-29T10:05:20;26.30;44.20
42683;DHT22;28293;50.930;3.464;2022-07-29T10:07:48;26.60;43.70
42683;DHT22;28293;50.930;3.464;2022-07-29T10:10:31;26.60;42.60
42683;DHT22;28293;50.930;3.464;2022-07-29T10:13:02;26.60;42.10
42683;DHT22;28293;50.930;3.464;2022-07-29T10:15:30;26.30;42.80
42683;DHT22;28293;50.930;3.464;2022-07-29T10:17:58;25.80;42.80
42683;DHT22;28293;50.930;3.464;2022-07-29T10:20:25;25.60;43.80
42683;DHT22;28293;50.930;3.464;2022-07-29T10:22:52;25.60;43.40
42683;DHT22;28293;50.930;3.464;2022-07-29T10:25:18;25.40;44.60
42683;DHT22;28293;50.930;3.464;2022-07-29T10:27:45;25.00;44.00
42683;DHT22;28293;50.930;3.464;2022-07-29T10:30:13;25.10;44.20
42683;DHT22;28293;50.930;3.464;2022-07-29T10:32:48;25.20;43.60
42683;DHT22;28293;50.930;3.464;2022-07-29T10:38:27;24.90;43.80
42683;DHT22;28293;50.930;3.464;2022-07-29T10:44:00;25.10;44.10
42683;DHT22;28293;50.930;3.464;2022-07-29T10:46:27;25.30;43.70
42683;DHT22;28293;50.930;3.464;2022-07-29T10:57:23;26.40;41.70
42683;DHT22;28293;50.930;3.464;2022-07-29T11:07:24;27.30;39.30
42683;DHT22;28293;50.930;3.464;2022-07-29T11:10:25;27.10;38.70
42683;DHT22;28293;50.930;3.464;2022-07-29T11:12:51;27.10;39.70
42683;DHT22;28293;50.930;3.464;2022-07-29T11:15:21;27.20;39.90
42683;DHT22;28293;50.930;3.464;2022-07-29T11:22:57;28.00;37.40
42683;DHT22;28293;50.930;3.464;2022-07-29T11:25:24;28.20;36.90
42683;DHT22;28293;50.930;3.464;2022-07-29T11:27:50;28.10;37.60
42683;DHT22;28293;50.930;3.464;2022-07-29T11:30:17;28.00;38.10
42683;DHT22;28293;50.930;3.464;2022-07-29T11:32:44;27.70;37.70
42683;DHT22;28293;50.930;3.464;2022-07-29T11:37:39;27.10;38.90
42683;DHT22;28293;50.930;3.464;2022-07-29T11:47:59;27.10;38.10
42683;DHT22;28293;50.930;3.464;2022-07-29T11:50:32;27.50;37.60
42683;DHT22;28293;50.930;3.464;2022-07-29T11:52:58;27.50;37.80
42683;DHT22;28293;50.930;3.464;2022-07-29T11:55:25;28.00;37.30
42683;DHT22;28293;50.930;3.464;2022-07-29T11:57:56;28.50;36.60
42683;DHT22;28293;50.930;3.464;2022-07-29T12:00:35;28.20;37.10
42683;DHT22;28293;50.930;3.464;2022-07-29T12:03:05;28.30;36.40
42683;DHT22;28293;50.930;3.464;2022-07-29T12:05:42;27.80;37.10
42683;DHT22;28293;50.930;3.464;2022-07-29T12:10:39;27.50;37.60
42683;DHT22;28293;50.930;3.464;2022-07-29T12:13:05;27.30;37.40
42683;DHT22;28293;50.930;3.464;2022-07-29T12:15:31;27.20;38.40
42683;DHT22;28293;50.930;3.464;2022-07-29T12:17:57;27.10;37.60
42683;DHT22;28293;50.930;3.464;2022-07-29T12:20:28;27.10;38.10
42683;DHT22;28293;50.930;3.464;2022-07-29T12:22:55;27.00;38.50
42683;DHT22;28293;50.930;3.464;2022-07-29T12:25:22;26.90;38.70
42683;DHT22;28293;50.930;3.464;2022-07-29T12:28:00;27.10;39.10
42683;DHT22;28293;50.930;3.464;2022-07-29T12:35:38;27.60;37.20
42683;DHT22;28293;50.930;3.464;2022-07-29T12:38:05;27.40;38.20
42683;DHT22;28293;50.930;3.464;2022-07-29T12:40:31;27.60;37.70
42683;DHT22;28293;50.930;3.464;2022-07-29T12:43:12;27.70;38.20
42683;DHT22;28293;50.930;3.464;2022-07-29T12:45:40;28.20;37.00
42683;DHT22;28293;50.930;3.464;2022-07-29T12:48:06;28.40;36.40
42683;DHT22;28293;50.930;3.464;2022-07-29T12:50:35;28.10;36.10
42683;DHT22;28293;50.930;3.464;2022-07-29T12:53:11;27.70;37.80
42683;DHT22;28293;50.930;3.464;2022-07-29T12:55:39;27.60;38.30
42683;DHT22;28293;50.930;3.464;2022-07-29T12:58:05;27.30;38.70
42683;DHT22;28293;50.930;3.464;2022-07-29T13:00:31;27.00;39.50
42683;DHT22;28293;50.930;3.464;2022-07-29T13:02:59;26.70;39.40
42683;DHT22;28293;50.930;3.464;2022-07-29T13:05:46;26.60;39.40
42683;DHT22;28293;50.930;3.464;2022-07-29T13:08:16;26.70;39.80
42683;DHT22;28293;50.930;3.464;2022-07-29T13:10:44;26.70;40.10
42683;DHT22;28293;50.930;3.464;2022-07-29T13:13:12;27.20;39.40
42683;DHT22;28293;50.930;3.464;2022-07-29T13:15:40;27.90;37.60
42683;DHT22;28293;50.930;3.464;2022-07-29T13:18:29;28.00;37.70
42683;DHT22;28293;50.930;3.464;2022-07-29T13:20:55;28.30;37.10
42683;DHT22;28293;50.930;3.464;2022-07-29T13:23:21;28.10;37.40
42683;DHT22;28293;50.930;3.464;2022-07-29T13:25:47;28.40;37.70
42683;DHT22;28293;50.930;3.464;2022-07-29T13:28:13;28.30;36.20
42683;DHT22;28293;50.930;3.464;2022-07-29T13:30:40;27.90;38.20
42683;DHT22;28293;50.930;3.464;2022-07-29T13:33:06;27.50;38.80
42683;DHT22;28293;50.930;3.464;2022-07-29T13:35:32;27.80;38.70
42683;DHT22;28293;50.930;3.464;2022-07-29T13:37:58;28.00;38.30
42683;DHT22;28293;50.930;3.464;2022-07-29T13:40:24;28.10;38.10
42683;DHT22;28293;50.930;3.464;2022-07-29T13:42:50;28.30;38.20
42683;DHT22;28293;50.930;3.464;2022-07-29T13:45:15;28.40;37.30
42683;DHT22;28293;50.930;3.464;2022-07-29T13:47:41;28.40;36.80
42683;DHT22;28293;50.930;3.464;2022-07-29T13:50:08;28.20;37.70
42683;DHT22;28293;50.930;3.464;2022-07-29T13:52:36;28.30;37.50
42683;DHT22;28293;50.930;3.464;2022-07-29T13:55:04;28.80;37.00
42683;DHT22;28293;50.930;3.464;2022-07-29T13:57:30;28.80;36.30
42683;DHT22;28293;50.930;3.464;2022-07-29T13:59:56;28.70;36.30
42683;DHT22;28293;50.930;3.464;2022-07-29T14:02:22;28.60;37.90
42683;DHT22;28293;50.930;3.464;2022-07-29T14:04:48;28.50;38.80
42683;DHT22;28293;50.930;3.464;2022-07-29T14:07:14;28.10;38.90
42683;DHT22;28293;50.930;3.464;2022-07-29T14:09:40;27.50;39.90
42683;DHT22;28293;50.930;3.464;2022-07-29T14:12:06;27.30;40.00
42683;DHT22;28293;50.930;3.464;2022-07-29T14:14:32;27.00;41.30
42683;DHT22;28293;50.930;3.464;2022-07-29T14:16:59;26.90;40.80
42683;DHT22;28293;50.930;3.464;2022-07-29T14:19:24;27.10;40.70
42683;DHT22;28293;50.930;3.464;2022-07-29T14:21:50;27.10;41.00
42683;DHT22;28293;50.930;3.464;2022-07-29T14:24:16;27.00;40.60
42683;DHT22;28293;50.930;3.464;2022-07-29T14:26:42;27.10;41.60
42683;DHT22;28293;50.930;3.464;2022-07-29T14:29:08;27.10;40.60
42683;DHT22;28293;50.930;3.464;2022-07-29T14:31:34;27.00;40.90
42683;DHT22;28293;50.930;3.464;2022-07-29T14:33:59;26.80;41.00
42683;DHT22;28293;50.930;3.464;2022-07-29T14:36:25;26.90;40.80
42683;DHT22;28293;50.930;3.464;2022-07-29T14:38:52;27.10;40.90
42683;DHT22;28293;50.930;3.464;2022-07-29T14:41:18;27.60;40.50
42683;DHT22;28293;50.930;3.464;2022-07-29T14:43:44;27.60;40.00
42683;DHT22;28293;50.930;3.464;2022-07-29T14:46:10;27.40;41.40
42683;DHT22;28293;50.930;3.464;2022-07-29T14:48:35;27.60;41.10
42683;DHT22;28293;50.930;3.464;2022-07-29T14:51:01;27.80;40.00
42683;DHT22;28293;50.930;3.464;2022-07-29T14:53:27;28.10;39.60
42683;DHT22;28293;50.930;3.464;2022-07-29T14:55:53;28.10;39.20
42683;DHT22;28293;50.930;3.464;2022-07-29T14:58:18;28.20;38.40
42683;DHT22;28293;50.930;3.464;2022-07-29T15:00:45;28.40;38.50
42683;DHT22;28293;50.930;3.464;2022-07-29T15:03:10;28.20;38.40
42683;DHT22;28293;50.930;3.464;2022-07-29T15:05:36;28.00;39.00
42683;DHT22;28293;50.930;3.464;2022-07-29T15:08:02;27.90;39.40
42683;DHT22;28293;50.930;3.464;2022-07-29T15:10:28;28.10;39.00
42683;DHT22;28293;50.930;3.464;2022-07-29T15:12:55;28.30;38.80
42683;DHT22;28293;50.930;3.464;2022-07-29T15:15:21;28.10;38.50
42683;DHT22;28293;50.930;3.464;2022-07-29T15:17:47;27.90;38.40
42683;DHT22;28293;50.930;3.464;2022-07-29T15:20:12;27.90;38.80
42683;DHT22;28293;50.930;3.464;2022-07-29T15:22:39;27.90;39.50
42683;DHT22;28293;50.930;3.464;2022-07-29T15:25:06;28.10;38.80
42683;DHT22;28293;50.930;3.464;2022-07-29T15:27:32;28.00;39.00
42683;DHT22;28293;50.930;3.464;2022-07-29T15:29:58;28.00;39.20
42683;DHT22;28293;50.930;3.464;2022-07-29T15:32:24;28.00;39.80
42683;DHT22;28293;50.930;3.464;2022-07-29T15:34:49;27.80;39.30
42683;DHT22;28293;50.930;3.464;2022-07-29T15:37:15;28.00;40.00
42683;DHT22;28293;50.930;3.464;2022-07-29T15:39:40;27.60;40.20
42683;DHT22;28293;50.930;3.464;2022-07-29T15:42:06;27.30;40.80
42683;DHT22;28293;50.930;3.464;2022-07-29T15:44:32;27.20;41.20
42683;DHT22;28293;50.930;3.464;2022-07-29T15:46:58;27.30;41.70
42683;DHT22;28293;50.930;3.464;2022-07-29T15:49:37;27.10;41.60
42683;DHT22;28293;50.930;3.464;2022-07-29T15:52:05;26.90;42.80
42683;DHT22;28293;50.930;3.464;2022-07-29T15:54:32;26.90;43.50
42683;DHT22;28293;50.930;3.464;2022-07-29T15:56:58;27.00;43.40
42683;DHT22;28293;50.930;3.464;2022-07-29T15:59:24;27.10;42.40
42683;DHT22;28293;50.930;3.464;2022-07-29T16:01:50;26.80;43.10
42683;DHT22;28293;50.930;3.464;2022-07-29T16:04:16;26.90;43.10
42683;DHT22;28293;50.930;3.464;2022-07-29T16:06:42;26.80;42.60
42683;DHT22;28293;50.930;3.464;2022-07-29T16:09:08;26.80;43.80
42683;DHT22;28293;50.930;3.464;2022-07-29T16:11:34;27.00;43.60
42683;DHT22;28293;50.930;3.464;2022-07-29T16:13:59;27.00;42.80
42683;DHT22;28293;50.930;3.464;2022-07-29T16:16:25;26.70;43.00
42683;DHT22;28293;50.930;3.464;2022-07-29T16:18:50;26.60;43.80
42683;DHT22;28293;50.930;3.464;2022-07-29T16:21:16;26.50;43.80
42683;DHT22;28293;50.930;3.464;2022-07-29T16:23:42;26.30;43.30
42683;DHT22;28293;50.930;3.464;2022-07-29T16:26:08;26.10;44.10
42683;DHT22;28293;50.930;3.464;2022-07-29T16:28:33;26.00;45.00
42683;DHT22;28293;50.930;3.464;2022-07-29T16:30:59;26.00;44.50
42683;DHT22;28293;50.930;3.464;2022-07-29T16:33:25;26.10;44.30